Navigator Ceto — D5HE5 — position and weather

sailwx.info

Track history (hours):
 
Tides and Currents Weather Stations Pressure Air Temp Water Temp Dewpoint Dewpoint Depression Visibility Wind Speed Wind Dir Waves Ship Positions

Navigator Ceto

Last reported at 2017-Nov-24 06:58 UTC. Time now 2017-Nov-24 07:16 UTC.
Position N 01°11' E 103°43'.

Length 160 m; draft 9.3 m.

Type: Tanker. MMSI: 636016660.

Date/timePositionNaut miles runAvg speedWind from/ knotsBaromVisibWave heightAir tempDewpointWater temp
2017-Nov-24 06:58N 01°11' E 103°43'0 0.0
2017-Nov-24 06:28N 01°11' E 103°43'0 0.1
2017-Nov-24 05:58N 01°11' E 103°43'0 0.0
2017-Nov-24 05:28N 01°11' E 103°43'0 0.0
2017-Nov-24 04:58N 01°11' E 103°43'0 0.1
2017-Nov-24 04:25N 01°11' E 103°43'0 0.1
2017-Nov-24 03:55N 01°11' E 103°42'0 0.0
2017-Nov-24 02:13N 01°11' E 103°42'0 0.2
2017-Nov-24 01:49N 01°11' E 103°42'0 0.2
2017-Nov-24 01:25N 01°11' E 103°42'0 0.2
2017-Nov-24 00:55N 01°11' E 103°42'0 0.0
2017-Nov-23 23:49N 01°11' E 103°42'0 0.0
2017-Nov-23 23:25N 01°11' E 103°42'0 0.1
2017-Nov-23 22:43N 01°11' E 103°42'0 0.2
2017-Nov-23 22:25N 01°11' E 103°42'0 0.2
2017-Nov-23 21:43N 01°11' E 103°42'0 0.5
2017-Nov-23 21:25N 01°11' E 103°42'0 0.3
2017-Nov-23 20:55N 01°11' E 103°42'0 0.1
2017-Nov-23 20:25N 01°11' E 103°42'0 0.0
2017-Nov-23 19:43N 01°11' E 103°42'0 0.0
2017-Nov-23 19:19N 01°11' E 103°42'0 0.0
2017-Nov-23 18:55N 01°11' E 103°42'0 0.0
2017-Nov-23 18:25N 01°11' E 103°42'0 0.0
2017-Nov-23 17:55N 01°11' E 103°42'0 0.0
2017-Nov-23 17:25N 01°11' E 103°42'0 0.0
2017-Nov-23 16:55N 01°11' E 103°42'0 0.0
2017-Nov-23 16:25N 01°11' E 103°42'0 0.0
2017-Nov-23 15:49N 01°11' E 103°42'0 0.0
2017-Nov-23 15:25N 01°11' E 103°42'0 0.0
2017-Nov-23 14:55N 01°11' E 103°42'0 0.0
2017-Nov-23 14:19N 01°11' E 103°42'0 0.0
2017-Nov-23 13:49N 01°11' E 103°42'0 0.0
2017-Nov-23 13:25N 01°11' E 103°42'0 0.1
2017-Nov-23 12:55N 01°11' E 103°43'0 0.0
2017-Nov-23 12:25N 01°11' E 103°43'0 0.1
2017-Nov-23 11:55N 01°11' E 103°42'0 0.0
2017-Nov-23 11:19N 01°11' E 103°42'0 0.0
2017-Nov-23 10:55N 01°11' E 103°42'0 0.0
2017-Nov-23 10:25N 01°11' E 103°42'0 0.0
2017-Nov-23 09:52N 01°11' E 103°42'0 0.1
2017-Nov-23 09:25N 01°11' E 103°43'0 0.1
2017-Nov-23 08:58N 01°11' E 103°42'0 0.0
2017-Nov-23 08:28N 01°11' E 103°42'0 0.0
2017-Nov-23 07:55N 01°11' E 103°42'0 0.1
2017-Nov-23 07:25N 01°11' E 103°42'0 0.0
2017-Nov-23 06:58N 01°11' E 103°42'0 0.0
2017-Nov-23 06:28N 01°11' E 103°42'0 0.0
2017-Nov-23 05:49N 01°11' E 103°42'0 0.1
2017-Nov-23 05:28N 01°11' E 103°42'0 0.0
2017-Nov-23 04:58N 01°11' E 103°42'0 0.0
2017-Nov-23 04:25N 01°11' E 103°42'0 0.0
2017-Nov-23 03:55N 01°11' E 103°42'0 0.0
2017-Nov-23 03:25N 01°11' E 103°42'0 0.0
2017-Nov-23 02:58N 01°11' E 103°42'0 0.1
2017-Nov-23 02:25N 01°11' E 103°42'0 0.1
2017-Nov-23 01:52N 01°11' E 103°42'0 0.1
2017-Nov-23 01:16N 01°11' E 103°42'0 0.0
2017-Nov-23 00:52N 01°11' E 103°42'0 0.0
2017-Nov-23 00:28N 01°11' E 103°42'0 0.0
2017-Nov-22 23:58N 01°11' E 103°42'0 0.0
2017-Nov-22 23:28N 01°11' E 103°42'0 0.0
2017-Nov-22 22:49N 01°11' E 103°42'0 0.0
2017-Nov-22 22:28N 01°11' E 103°42'0 0.1
2017-Nov-22 21:37N 01°11' E 103°42'0 0.0
2017-Nov-22 21:28N 01°11' E 103°42'0 0.4
2017-Nov-22 21:00N 01°11' E 103°42'2 4.1
2017-Nov-22 20:30N 01°11' E 103°40'4 7.0
2017-Nov-22 20:00N 01°13' E 103°37'2 3.0
2017-Nov-22 19:30N 01°13' E 103°36'  
Track history (hours):
 
Tides and Currents Weather Stations Pressure Air Temp Water Temp Dewpoint Dewpoint Depression Visibility Wind Speed Wind Dir Waves Ship Positions

Navigator Ceto

Last reported at 2017-Nov-24 06:58 UTC. Time now 2017-Nov-24 07:17 UTC.
Position N 01°11' E 103°43'.

Length 160 m; draft 9.3 m.

Type: Tanker. MMSI: 636016660.

Date/timePositionNaut miles runAvg speedWind from/ knotsBaromVisibWave heightAir tempDewpointWater temp
2017-Nov-24 06:58N 01°11' E 103°43'0 0.0
2017-Nov-24 06:28N 01°11' E 103°43'0 0.1
2017-Nov-24 05:58N 01°11' E 103°43'0 0.0
2017-Nov-24 05:28N 01°11' E 103°43'0 0.0
2017-Nov-24 04:58N 01°11' E 103°43'0 0.1
2017-Nov-24 04:25N 01°11' E 103°43'0 0.1
2017-Nov-24 03:55N 01°11' E 103°42'0 0.0
2017-Nov-24 02:13N 01°11' E 103°42'0 0.2
2017-Nov-24 01:49N 01°11' E 103°42'0 0.2
2017-Nov-24 01:25N 01°11' E 103°42'0 0.2
2017-Nov-24 00:55N 01°11' E 103°42'0 0.0
2017-Nov-23 23:49N 01°11' E 103°42'0 0.0
2017-Nov-23 23:25N 01°11' E 103°42'0 0.1
2017-Nov-23 22:43N 01°11' E 103°42'0 0.2
2017-Nov-23 22:25N 01°11' E 103°42'0 0.2
2017-Nov-23 21:43N 01°11' E 103°42'0 0.5
2017-Nov-23 21:25N 01°11' E 103°42'0 0.3
2017-Nov-23 20:55N 01°11' E 103°42'0 0.1
2017-Nov-23 20:25N 01°11' E 103°42'0 0.0
2017-Nov-23 19:43N 01°11' E 103°42'0 0.0
2017-Nov-23 19:19N 01°11' E 103°42'0 0.0
2017-Nov-23 18:55N 01°11' E 103°42'0 0.0
2017-Nov-23 18:25N 01°11' E 103°42'0 0.0
2017-Nov-23 17:55N 01°11' E 103°42'0 0.0
2017-Nov-23 17:25N 01°11' E 103°42'0 0.0
2017-Nov-23 16:55N 01°11' E 103°42'0 0.0
2017-Nov-23 16:25N 01°11' E 103°42'0 0.0
2017-Nov-23 15:49N 01°11' E 103°42'0 0.0
2017-Nov-23 15:25N 01°11' E 103°42'0 0.0
2017-Nov-23 14:55N 01°11' E 103°42'0 0.0
2017-Nov-23 14:19N 01°11' E 103°42'0 0.0
2017-Nov-23 13:49N 01°11' E 103°42'0 0.0
2017-Nov-23 13:25N 01°11' E 103°42'0 0.1
2017-Nov-23 12:55N 01°11' E 103°43'0 0.0
2017-Nov-23 12:25N 01°11' E 103°43'0 0.1
2017-Nov-23 11:55N 01°11' E 103°42'0 0.0
2017-Nov-23 11:19N 01°11' E 103°42'0 0.0
2017-Nov-23 10:55N 01°11' E 103°42'0 0.0
2017-Nov-23 10:25N 01°11' E 103°42'0 0.0
2017-Nov-23 09:52N 01°11' E 103°42'0 0.1
2017-Nov-23 09:25N 01°11' E 103°43'0 0.1
2017-Nov-23 08:58N 01°11' E 103°42'0 0.0
2017-Nov-23 08:28N 01°11' E 103°42'0 0.0
2017-Nov-23 07:55N 01°11' E 103°42'0 0.1
2017-Nov-23 07:25N 01°11' E 103°42'0 0.0
2017-Nov-23 06:58N 01°11' E 103°42'0 0.0
2017-Nov-23 06:28N 01°11' E 103°42'0 0.0
2017-Nov-23 05:49N 01°11' E 103°42'0 0.1
2017-Nov-23 05:28N 01°11' E 103°42'0 0.0
2017-Nov-23 04:58N 01°11' E 103°42'0 0.0
2017-Nov-23 04:25N 01°11' E 103°42'0 0.0
2017-Nov-23 03:55N 01°11' E 103°42'0 0.0
2017-Nov-23 03:25N 01°11' E 103°42'0 0.0
2017-Nov-23 02:58N 01°11' E 103°42'0 0.1
2017-Nov-23 02:25N 01°11' E 103°42'0 0.1
2017-Nov-23 01:52N 01°11' E 103°42'0 0.1
2017-Nov-23 01:16N 01°11' E 103°42'0 0.0
2017-Nov-23 00:52N 01°11' E 103°42'0 0.0
2017-Nov-23 00:28N 01°11' E 103°42'0 0.0
2017-Nov-22 23:58N 01°11' E 103°42'0 0.0
2017-Nov-22 23:28N 01°11' E 103°42'0 0.0
2017-Nov-22 22:49N 01°11' E 103°42'0 0.0
2017-Nov-22 22:28N 01°11' E 103°42'0 0.1
2017-Nov-22 21:37N 01°11' E 103°42'0 0.0
2017-Nov-22 21:28N 01°11' E 103°42'0 0.4
2017-Nov-22 21:00N 01°11' E 103°42'2 4.1
2017-Nov-22 20:30N 01°11' E 103°40'4 7.0
2017-Nov-22 20:00N 01°13' E 103°37'2 3.0
2017-Nov-22 19:30N 01°13' E 103°36'  

Dump ship's entire track history